createdAt,value
2018-12-19T00:00:24.111Z,9.83
2018-12-19T00:02:54.573Z,9.37
2018-12-19T00:05:24.996Z,7.87
2018-12-19T00:07:53.475Z,8.33
2018-12-19T00:10:22.750Z,10.57
2018-12-19T00:12:51.060Z,9.67
2018-12-19T00:15:19.455Z,9.57
2018-12-19T00:17:49.848Z,9.10
2018-12-19T00:20:18.168Z,8.60
2018-12-19T00:22:46.481Z,8.27
2018-12-19T00:25:14.832Z,8.13
2018-12-19T00:27:45.221Z,7.70
2018-12-19T00:30:15.705Z,9.07
2018-12-19T00:32:46.131Z,9.30
2018-12-19T00:35:16.604Z,7.73
2018-12-19T00:37:45.124Z,7.47
2018-12-19T00:40:13.449Z,8.13
2018-12-19T00:42:43.575Z,8.33
2018-12-19T00:45:11.850Z,7.17
2018-12-19T00:47:40.205Z,10.37
2018-12-19T00:50:08.830Z,9.47
2018-12-19T00:52:37.553Z,7.37
2018-12-19T00:55:06.832Z,6.10
2018-12-19T00:57:35.143Z,6.10
2018-12-19T01:00:04.173Z,6.70
2018-12-19T01:02:32.737Z,7.17
2018-12-19T01:05:01.049Z,4.00
2018-12-19T01:07:29.471Z,5.40
2018-12-19T01:09:57.795Z,8.50
2018-12-19T01:12:27.163Z,8.40
2018-12-19T01:14:56.767Z,6.33
2018-12-19T01:17:25.147Z,7.23
2018-12-19T01:19:53.473Z,6.20
2018-12-19T01:22:21.772Z,6.80
2018-12-19T01:24:50.600Z,6.97
2018-12-19T01:27:18.992Z,9.40
2018-12-19T01:29:47.479Z,5.83
2018-12-19T01:32:15.836Z,7.97
2018-12-19T01:34:44.140Z,8.83
2018-12-19T01:37:12.468Z,7.20
2018-12-19T01:39:40.769Z,6.33
2018-12-19T01:42:09.083Z,7.90
2018-12-19T01:44:37.392Z,7.17
2018-12-19T01:47:05.695Z,6.83
2018-12-19T01:49:33.992Z,6.17
2018-12-19T01:52:02.486Z,5.40
2018-12-19T01:54:30.815Z,9.50
2018-12-19T01:56:59.132Z,6.87
2018-12-19T01:59:27.492Z,6.43
2018-12-19T02:01:55.835Z,10.63
2018-12-19T02:04:24.238Z,4.37
2018-12-19T02:06:52.543Z,3.93
2018-12-19T02:09:20.872Z,4.87
2018-12-19T02:11:49.301Z,6.73
2018-12-19T02:14:17.583Z,6.57
2018-12-19T02:16:45.928Z,5.40
2018-12-19T02:19:14.276Z,5.50
2018-12-19T02:21:42.614Z,5.57
2018-12-19T02:24:11.042Z,6.53
2018-12-19T02:26:40.403Z,4.53
2018-12-19T02:29:08.899Z,6.47
2018-12-19T02:31:37.348Z,9.17
2018-12-19T02:34:06.191Z,6.27
2018-12-19T02:36:34.872Z,5.60
2018-12-19T02:39:05.496Z,7.03
2018-12-19T02:41:35.863Z,7.37
2018-12-19T02:44:04.279Z,6.87
2018-12-19T02:46:32.575Z,7.27
2018-12-19T02:49:00.879Z,7.20
2018-12-19T02:51:29.172Z,5.60
2018-12-19T02:53:57.475Z,7.57
2018-12-19T02:56:25.756Z,5.70
2018-12-19T02:58:54.097Z,6.03
2018-12-19T03:01:23.216Z,6.60
2018-12-19T03:03:51.492Z,9.03
2018-12-19T03:06:19.794Z,7.83
2018-12-19T03:08:48.096Z,7.17
2018-12-19T03:11:16.661Z,12.77
2018-12-19T03:13:48.087Z,9.50
2018-12-19T03:16:16.504Z,6.87
2018-12-19T03:18:44.842Z,7.17
2018-12-19T03:21:13.180Z,7.37
2018-12-19T03:23:41.480Z,6.73
2018-12-19T03:26:09.796Z,8.47
2018-12-19T03:28:38.144Z,6.47
2018-12-19T03:31:06.560Z,6.77
2018-12-19T03:33:37.120Z,7.03
2018-12-19T03:36:05.490Z,6.60
2018-12-19T03:38:33.814Z,8.33
2018-12-19T03:41:02.307Z,7.57
2018-12-19T03:43:30.626Z,8.53
2018-12-19T03:45:58.979Z,5.93
2018-12-19T03:48:32.625Z,7.07
2018-12-19T03:51:00.949Z,8.30
2018-12-19T03:53:32.053Z,8.83
2018-12-19T03:56:00.428Z,5.93
2018-12-19T03:58:29.148Z,5.83
2018-12-19T04:00:57.440Z,6.03
2018-12-19T04:03:25.780Z,13.40
2018-12-19T04:05:54.059Z,6.73
2018-12-19T04:08:22.443Z,7.67
2018-12-19T04:10:50.784Z,8.33
2018-12-19T04:13:19.116Z,9.10
2018-12-19T04:15:47.424Z,6.80
2018-12-19T04:18:15.814Z,9.27
2018-12-19T04:20:44.146Z,14.03
2018-12-19T04:23:12.517Z,11.30
2018-12-19T04:25:40.790Z,8.40
2018-12-19T04:28:09.187Z,12.67
2018-12-19T04:30:39.386Z,14.73
2018-12-19T04:33:08.420Z,12.20
2018-12-19T04:35:37.200Z,9.37
2018-12-19T04:38:05.499Z,11.77
2018-12-19T04:40:33.879Z,10.23
2018-12-19T04:43:02.288Z,9.00
2018-12-19T04:45:30.560Z,9.23
2018-12-19T04:47:58.882Z,11.87
2018-12-19T04:50:27.217Z,7.07
2018-12-19T04:52:55.516Z,7.47
2018-12-19T04:55:23.827Z,7.13
2018-12-19T04:57:52.112Z,7.93
2018-12-19T05:00:20.479Z,6.57
2018-12-19T05:02:48.866Z,6.83
2018-12-19T05:05:18.036Z,10.17
2018-12-19T05:07:46.585Z,6.37
2018-12-19T05:10:14.945Z,8.30
2018-12-19T05:12:43.248Z,6.83
2018-12-19T05:15:11.575Z,9.37
2018-12-19T05:17:39.888Z,8.13
2018-12-19T05:20:10.221Z,5.93
2018-12-19T05:22:38.495Z,6.73
2018-12-19T05:25:09.744Z,10.03
2018-12-19T05:27:38.038Z,6.13
2018-12-19T05:30:06.682Z,8.20
2018-12-19T05:32:35.015Z,9.33
2018-12-19T05:35:03.595Z,5.97
2018-12-19T05:37:31.972Z,7.77
2018-12-19T05:40:01.085Z,9.30
2018-12-19T05:42:30.422Z,10.97
2018-12-19T05:44:58.778Z,8.67
2018-12-19T05:47:27.427Z,5.67
2018-12-19T05:49:56.572Z,8.53
2018-12-19T05:52:26.362Z,7.93
2018-12-19T05:54:54.817Z,10.07
2018-12-19T05:57:26.308Z,5.57
2018-12-19T05:59:54.668Z,10.43
2018-12-19T06:02:23.971Z,6.07
2018-12-19T06:04:52.248Z,8.27
2018-12-19T06:07:20.523Z,8.50
2018-12-19T06:09:49.784Z,6.37
2018-12-19T06:12:18.096Z,7.70
2018-12-19T06:14:46.372Z,7.50
2018-12-19T06:17:15.506Z,8.30
2018-12-19T06:19:43.817Z,8.47
2018-12-19T06:22:12.128Z,10.50
2018-12-19T06:24:40.442Z,9.30
2018-12-19T06:27:08.812Z,7.67
2018-12-19T06:29:39.212Z,8.60
2018-12-19T06:32:07.539Z,8.40
2018-12-19T06:34:35.831Z,7.50
2018-12-19T06:37:04.748Z,10.90
2018-12-19T06:39:33.388Z,8.50
2018-12-19T06:42:01.823Z,8.97
2018-12-19T06:44:30.261Z,9.10
2018-12-19T06:46:58.579Z,10.47
2018-12-19T06:49:27.273Z,8.43
2018-12-19T06:51:56.227Z,13.67
2018-12-19T06:54:24.523Z,9.30
2018-12-19T06:56:52.843Z,7.37
2018-12-19T06:59:21.172Z,9.73
2018-12-19T07:01:49.854Z,11.70
2018-12-19T07:04:18.180Z,9.53
2018-12-19T07:06:46.496Z,8.93
2018-12-19T07:09:15.225Z,5.57
2018-12-19T07:11:43.653Z,12.53
2018-12-19T07:14:12.014Z,6.63
2018-12-19T07:16:43.465Z,8.27
2018-12-19T07:19:10.900Z,8.57
2018-12-19T07:21:39.232Z,8.90
2018-12-19T07:24:07.719Z,8.20
2018-12-19T07:26:36.036Z,8.70
2018-12-19T07:29:04.417Z,11.57
2018-12-19T07:31:32.824Z,8.37
2018-12-19T07:34:01.296Z,10.50
2018-12-19T07:36:29.787Z,9.60
2018-12-19T07:38:58.164Z,7.53
2018-12-19T07:41:26.563Z,10.73
2018-12-19T07:43:55.008Z,7.73
2018-12-19T07:46:24.292Z,9.97
2018-12-19T07:48:52.788Z,11.00
2018-12-19T07:51:21.571Z,8.53
2018-12-19T07:53:50.103Z,7.70
2018-12-19T07:56:18.764Z,11.77
2018-12-19T07:58:47.159Z,9.27
2018-12-19T08:01:15.544Z,9.90
2018-12-19T08:03:44.819Z,8.57
2018-12-19T08:06:13.176Z,6.17
2018-12-19T08:08:41.634Z,8.30
2018-12-19T08:11:10.048Z,8.97
2018-12-19T08:13:38.401Z,5.73
2018-12-19T08:16:06.795Z,8.17
2018-12-19T08:18:35.159Z,7.50
2018-12-19T08:21:03.501Z,7.80
2018-12-19T08:23:32.224Z,7.30
2018-12-19T08:26:01.022Z,9.20
2018-12-19T08:28:29.400Z,12.13
2018-12-19T08:30:57.736Z,7.93
2018-12-19T08:33:26.095Z,7.73
2018-12-19T08:35:54.556Z,12.33
2018-12-19T08:38:24.829Z,7.93
2018-12-19T08:40:58.774Z,7.00
2018-12-19T08:43:25.370Z,8.10
2018-12-19T08:45:54.173Z,6.97
2018-12-19T08:48:22.547Z,5.43
2018-12-19T08:50:50.956Z,6.60
2018-12-19T08:53:19.350Z,6.83
2018-12-19T08:55:47.852Z,7.97
2018-12-19T08:58:16.212Z,7.97
2018-12-19T09:00:44.563Z,6.60
2018-12-19T09:03:13.045Z,9.30
2018-12-19T09:05:41.643Z,8.07
2018-12-19T09:08:10.230Z,12.73
2018-12-19T09:10:38.638Z,7.70
2018-12-19T09:13:07.099Z,9.53
2018-12-19T09:15:40.916Z,6.80
2018-12-19T09:18:09.353Z,7.93
2018-12-19T09:20:37.707Z,6.20
2018-12-19T09:23:07.092Z,5.87
2018-12-19T09:25:35.439Z,9.80
2018-12-19T09:28:04.112Z,8.30
2018-12-19T09:30:32.476Z,12.93
2018-12-19T09:33:00.860Z,7.07
2018-12-19T09:35:29.220Z,7.90
2018-12-19T09:37:57.644Z,11.53
2018-12-19T09:40:26.120Z,10.67
2018-12-19T09:42:54.537Z,10.37
2018-12-19T09:45:23.391Z,12.03
2018-12-19T09:47:51.784Z,12.03
2018-12-19T09:50:20.122Z,12.23
2018-12-19T09:52:48.531Z,7.73
2018-12-19T09:55:16.899Z,9.43
2018-12-19T09:57:45.456Z,7.57
2018-12-19T10:00:19.254Z,10.23
2018-12-19T10:02:49.316Z,8.87
2018-12-19T10:05:17.893Z,11.97
2018-12-19T10:07:47.234Z,9.97
2018-12-19T10:10:16.292Z,8.40
2018-12-19T10:12:44.701Z,7.70
2018-12-19T10:15:13.099Z,9.00
2018-12-19T10:17:41.504Z,9.83
2018-12-19T10:20:10.055Z,8.93
2018-12-19T10:22:38.465Z,6.63
2018-12-19T10:25:13.863Z,9.67
2018-12-19T10:27:42.390Z,11.00
2018-12-19T10:30:12.527Z,10.47
2018-12-19T10:32:41.240Z,12.80
2018-12-19T10:35:10.807Z,9.53
2018-12-19T10:37:39.152Z,9.00
2018-12-19T10:40:11.536Z,14.47
2018-12-19T10:42:39.912Z,25.50
2018-12-19T10:45:09.854Z,32.97
2018-12-19T10:47:38.304Z,23.77
2018-12-19T10:50:09.051Z,24.57
2018-12-19T10:52:44.237Z,27.97
2018-12-19T10:55:13.349Z,26.73
2018-12-19T10:57:42.474Z,24.37
2018-12-19T11:00:17.987Z,28.07
2018-12-19T11:02:47.323Z,24.03
2018-12-19T11:05:16.456Z,19.73
2018-12-19T11:07:45.766Z,21.50
2018-12-19T11:10:14.844Z,17.50
2018-12-19T11:12:43.920Z,23.10
2018-12-19T11:15:12.979Z,34.17
2018-12-19T11:17:42.151Z,29.47
2018-12-19T11:20:11.464Z,24.60
2018-12-19T11:22:40.890Z,21.50
2018-12-19T11:25:09.976Z,18.67
2018-12-19T11:27:40.119Z,11.43
2018-12-19T11:30:09.887Z,9.63
2018-12-19T11:32:38.966Z,8.43
2018-12-19T11:35:08.193Z,10.47
2018-12-19T11:37:37.353Z,9.07
2018-12-19T11:40:08.159Z,10.67
2018-12-19T11:42:37.280Z,10.00
2018-12-19T11:45:06.664Z,13.20
2018-12-19T11:47:35.742Z,8.60
2018-12-19T11:50:05.590Z,10.63
2018-12-19T11:52:35.063Z,8.43
2018-12-19T11:55:04.187Z,11.77
2018-12-19T11:57:34.484Z,10.77
2018-12-19T12:00:05.391Z,16.70
2018-12-19T12:02:34.562Z,14.77
2018-12-19T12:05:04.440Z,13.67
2018-12-19T12:07:35.737Z,17.90
2018-12-19T12:10:05.734Z,18.00
2018-12-19T12:12:34.935Z,21.13
2018-12-19T12:15:05.467Z,18.60
2018-12-19T12:17:35.729Z,23.73
2018-12-19T12:20:06.623Z,21.73
2018-12-19T12:22:35.742Z,19.97
2018-12-19T12:25:05.530Z,19.23
2018-12-19T12:27:34.043Z,18.57
2018-12-19T12:30:02.489Z,14.17
2018-12-19T12:32:30.985Z,19.67
2018-12-19T12:34:59.512Z,22.43
2018-12-19T12:37:27.805Z,19.37
2018-12-19T12:39:56.252Z,17.00
2018-12-19T12:42:24.681Z,19.07
2018-12-19T12:44:53.340Z,16.17
2018-12-19T12:47:21.712Z,21.50
2018-12-19T12:49:50.217Z,15.50
2018-12-19T12:52:18.602Z,16.17
2018-12-19T12:54:47.130Z,17.00
2018-12-19T12:57:15.512Z,16.30
2018-12-19T12:59:43.938Z,14.80
2018-12-19T13:02:12.432Z,19.37
2018-12-19T13:04:41.240Z,15.23
2018-12-19T13:07:09.661Z,15.77
2018-12-19T13:09:38.113Z,16.43
2018-12-19T13:12:06.476Z,20.23
2018-12-19T13:14:34.883Z,15.27
2018-12-19T13:17:03.272Z,14.33
2018-12-19T13:19:32.692Z,19.23
2018-12-19T13:22:01.016Z,16.53
2018-12-19T13:24:29.413Z,15.43
2018-12-19T13:26:57.817Z,16.17
2018-12-19T13:29:26.904Z,13.43
2018-12-19T13:31:56.386Z,13.17
2018-12-19T13:34:26.491Z,17.20
2018-12-19T13:36:55.607Z,15.17
2018-12-19T13:39:24.696Z,15.43
2018-12-19T13:41:54.038Z,25.90
2018-12-19T13:44:23.173Z,15.73
2018-12-19T13:46:52.402Z,14.70
2018-12-19T13:49:21.600Z,14.67
2018-12-19T13:51:51.083Z,11.97
2018-12-19T13:54:20.221Z,13.60
2018-12-19T13:56:49.294Z,13.10
2018-12-19T13:59:18.373Z,11.10
2018-12-19T14:01:47.458Z,12.57
2018-12-19T14:04:16.643Z,10.47
2018-12-19T14:06:45.698Z,11.77
2018-12-19T14:09:15.271Z,14.07
2018-12-19T14:11:44.364Z,12.77
2018-12-19T14:14:13.887Z,15.40
2018-12-19T14:16:42.243Z,12.27
2018-12-19T14:19:10.637Z,12.97
2018-12-19T14:21:39.283Z,10.83
2018-12-19T14:24:07.708Z,12.13
2018-12-19T14:26:36.091Z,9.70
2018-12-19T14:29:04.456Z,12.73
2018-12-19T14:31:32.852Z,9.77
2018-12-19T14:34:01.289Z,12.00
2018-12-19T14:36:30.766Z,12.63
2018-12-19T14:38:59.210Z,14.93
2018-12-19T14:41:27.560Z,15.87
2018-12-19T14:43:56.013Z,12.47
2018-12-19T14:46:25.064Z,14.10
2018-12-19T14:48:53.599Z,15.00
2018-12-19T14:51:22.036Z,17.57
2018-12-19T14:53:50.380Z,16.37
2018-12-19T14:56:18.760Z,23.03
2018-12-19T14:58:47.115Z,17.23
2018-12-19T15:01:15.472Z,17.83
2018-12-19T15:03:43.855Z,21.13
2018-12-19T15:06:12.480Z,20.30
2018-12-19T15:08:40.857Z,19.43
2018-12-19T15:11:10.372Z,21.27
2018-12-19T15:13:38.921Z,21.00
2018-12-19T15:16:07.560Z,25.83
2018-12-19T15:18:35.995Z,25.87
2018-12-19T15:21:04.515Z,21.67
2018-12-19T15:23:32.889Z,23.67
2018-12-19T15:26:01.401Z,24.67
2018-12-19T15:28:29.819Z,25.37
2018-12-19T15:30:58.289Z,24.17
2018-12-19T15:33:26.654Z,23.67
2018-12-19T15:35:55.123Z,22.37
2018-12-19T15:38:23.603Z,24.87
2018-12-19T15:40:52.300Z,19.33
2018-12-19T15:43:20.652Z,24.83
2018-12-19T15:45:49.003Z,25.93
2018-12-19T15:48:17.353Z,24.83
2018-12-19T15:50:45.765Z,28.17
2018-12-19T15:53:15.568Z,27.53
2018-12-19T15:55:43.891Z,31.93
2018-12-19T15:58:12.326Z,38.77
2018-12-19T16:00:40.687Z,35.63
2018-12-19T16:03:09.065Z,36.67
2018-12-19T16:05:37.448Z,38.43
2018-12-19T16:08:05.820Z,46.63
2018-12-19T16:10:34.123Z,49.43
2018-12-19T16:13:02.477Z,50.47
2018-12-19T16:15:30.846Z,64.70
2018-12-19T16:17:59.223Z,75.80
2018-12-19T16:20:27.558Z,75.00
2018-12-19T16:22:55.940Z,88.90
2018-12-19T16:25:24.630Z,88.53
2018-12-19T16:27:54.016Z,84.73
2018-12-19T16:30:22.454Z,98.93
2018-12-19T16:32:51.223Z,109.77
2018-12-19T16:35:19.564Z,105.70
2018-12-19T16:37:48.063Z,112.73
2018-12-19T16:40:16.829Z,109.03
2018-12-19T16:42:46.169Z,83.80
2018-12-19T16:45:15.048Z,76.20
2018-12-19T16:47:45.062Z,69.37
2018-12-19T16:50:13.411Z,73.97
2018-12-19T16:52:41.773Z,75.67
2018-12-19T16:55:10.086Z,80.20
2018-12-19T16:57:38.481Z,75.57
2018-12-19T17:00:13.400Z,64.13
2018-12-19T17:02:41.884Z,51.43
2018-12-19T17:05:10.230Z,40.77
2018-12-19T17:07:38.569Z,36.33
2018-12-19T17:10:07.848Z,37.70
2018-12-19T17:12:36.364Z,34.63
2018-12-19T17:15:05.160Z,36.87
2018-12-19T17:17:45.730Z,38.53
2018-12-19T17:20:14.056Z,40.57
2018-12-19T17:22:43.184Z,47.57
2018-12-19T17:25:11.494Z,64.07
2018-12-19T17:27:39.902Z,58.13
2018-12-19T17:30:08.491Z,57.00
2018-12-19T17:32:36.852Z,61.33
2018-12-19T17:35:05.622Z,45.93
2018-12-19T17:37:33.988Z,58.83
2018-12-19T17:40:02.378Z,49.10
2018-12-19T17:42:31.067Z,42.63
2018-12-19T17:44:59.275Z,33.33
2018-12-19T17:47:27.652Z,25.63
2018-12-19T17:49:55.875Z,27.77
2018-12-19T17:52:24.352Z,25.63
2018-12-19T17:54:52.686Z,26.07
2018-12-19T17:57:21.072Z,23.30
2018-12-19T17:59:49.437Z,25.50
2018-12-19T18:02:21.944Z,23.27
2018-12-19T18:04:50.396Z,22.97
2018-12-19T18:07:18.760Z,27.33
2018-12-19T18:09:48.089Z,25.90
2018-12-19T18:12:16.431Z,31.97
2018-12-19T18:14:44.688Z,24.00
2018-12-19T18:17:13.044Z,28.73
2018-12-19T18:19:41.346Z,32.30
2018-12-19T18:22:09.612Z,20.97
2018-12-19T18:24:38.180Z,19.67
2018-12-19T18:27:06.608Z,18.47
2018-12-19T18:29:34.916Z,19.77
2018-12-19T18:32:03.200Z,18.43
2018-12-19T18:34:33.188Z,31.50
2018-12-19T18:37:01.705Z,20.80
2018-12-19T18:39:29.997Z,17.33
2018-12-19T18:41:58.540Z,20.03
2018-12-19T18:44:27.243Z,19.73
2018-12-19T18:46:55.919Z,24.93
2018-12-19T18:49:24.411Z,17.57
2018-12-19T18:51:52.888Z,21.80
2018-12-19T18:54:21.298Z,19.73
2018-12-19T18:56:50.779Z,21.07
2018-12-19T18:59:19.019Z,25.67
2018-12-19T19:01:47.317Z,24.10
2018-12-19T19:04:15.854Z,24.30
2018-12-19T19:06:44.373Z,22.67
2018-12-19T19:09:13.030Z,35.73
2018-12-19T19:11:42.220Z,38.97
2018-12-19T19:14:10.780Z,51.03
2018-12-19T19:16:39.191Z,38.87
2018-12-19T19:19:07.699Z,56.00
2018-12-19T19:21:36.576Z,69.57
2018-12-19T19:24:05.060Z,86.67
2018-12-19T19:26:33.559Z,93.37
2018-12-19T19:29:02.244Z,113.17
2018-12-19T19:31:30.752Z,100.73
2018-12-19T19:33:59.852Z,114.10
2018-12-19T19:36:28.377Z,128.50
2018-12-19T19:38:56.832Z,170.87
2018-12-19T19:41:25.076Z,165.03
2018-12-19T19:43:53.375Z,165.13
2018-12-19T19:46:21.751Z,151.03
2018-12-19T19:48:50.805Z,166.97
2018-12-19T19:51:19.405Z,154.17
2018-12-19T19:53:47.884Z,136.40
2018-12-19T19:56:16.625Z,140.63
2018-12-19T19:58:45.556Z,119.17
2018-12-19T20:01:14.576Z,131.13
2018-12-19T20:03:43.584Z,132.40
2018-12-19T20:06:12.452Z,122.23
2018-12-19T20:08:42.236Z,123.17
2018-12-19T20:19:09.235Z,99.47
2018-12-19T20:21:38.314Z,94.60
2018-12-19T20:24:07.232Z,98.23
2018-12-19T20:26:36.179Z,85.30
2018-12-19T20:29:05.593Z,90.50
2018-12-19T20:31:34.936Z,99.47
2018-12-19T20:34:03.896Z,104.37
2018-12-19T20:36:32.560Z,98.30
2018-12-19T20:39:01.339Z,104.83
2018-12-19T20:41:32.000Z,107.70
2018-12-19T20:44:00.770Z,112.47
2018-12-19T20:46:29.294Z,108.70
2018-12-19T20:48:58.508Z,113.53
2018-12-19T20:51:27.006Z,119.50
2018-12-19T20:53:55.547Z,110.90
2018-12-19T20:56:25.131Z,87.73
2018-12-19T20:58:53.659Z,94.73
2018-12-19T21:01:22.089Z,96.43
2018-12-19T21:03:50.465Z,111.07
2018-12-19T21:06:19.260Z,103.50
2018-12-19T21:08:47.785Z,108.53
2018-12-19T21:11:16.136Z,107.03
2018-12-19T21:13:46.927Z,102.13
2018-12-19T21:16:15.129Z,94.43
2018-12-19T21:18:50.862Z,80.90
2018-12-19T21:21:19.323Z,95.87
2018-12-19T21:23:47.716Z,92.50
2018-12-19T21:26:16.023Z,105.83
2018-12-19T21:28:44.707Z,126.73
2018-12-19T21:31:13.338Z,137.47
2018-12-19T21:33:41.772Z,125.47
2018-12-19T21:36:10.125Z,134.63
2018-12-19T21:38:40.499Z,104.50
2018-12-19T21:41:10.430Z,85.30
2018-12-19T21:43:38.840Z,84.23
2018-12-19T21:46:07.294Z,81.50
2018-12-19T21:48:35.886Z,94.00
2018-12-19T21:51:04.419Z,65.73
2018-12-19T21:53:32.823Z,76.17
2018-12-19T21:56:01.259Z,75.80
2018-12-19T21:58:30.034Z,58.23
2018-12-19T22:00:58.628Z,57.27
2018-12-19T22:03:27.634Z,72.50
2018-12-19T22:05:57.139Z,54.63
2018-12-19T22:08:25.668Z,61.10
2018-12-19T22:10:54.079Z,41.30
2018-12-19T22:13:22.513Z,44.03
2018-12-19T22:15:51.056Z,40.93
2018-12-19T22:18:25.602Z,37.63
2018-12-19T22:20:54.073Z,30.70
2018-12-19T22:23:22.515Z,33.40
2018-12-19T22:25:50.999Z,25.30
2018-12-19T22:28:19.897Z,27.63
2018-12-19T22:30:48.374Z,26.67
2018-12-19T22:33:16.918Z,24.10
2018-12-19T22:35:45.390Z,26.63
2018-12-19T22:38:13.915Z,27.80
2018-12-19T22:40:43.433Z,24.63
2018-12-19T22:43:12.167Z,23.37
2018-12-19T22:45:41.270Z,26.83
2018-12-19T22:48:10.251Z,22.70
2018-12-19T22:50:38.754Z,26.53
2018-12-19T22:53:07.266Z,21.20
2018-12-19T22:55:35.779Z,33.27
2018-12-19T22:58:04.921Z,23.53
2018-12-19T23:00:38.386Z,23.37
2018-12-19T23:03:09.197Z,23.53
2018-12-19T23:05:43.126Z,22.93
2018-12-19T23:08:11.874Z,16.80
2018-12-19T23:10:40.747Z,18.47
2018-12-19T23:13:09.195Z,24.57
2018-12-19T23:15:38.687Z,27.13
2018-12-19T23:18:18.923Z,31.17
2018-12-19T23:20:53.571Z,78.07
2018-12-19T23:23:27.885Z,51.60
2018-12-19T23:26:03.391Z,40.13
2018-12-19T23:28:34.465Z,38.90
2018-12-19T23:31:05.386Z,53.37
2018-12-19T23:33:33.959Z,43.73
2018-12-19T23:36:06.309Z,33.17
2018-12-19T23:38:39.040Z,36.03
2018-12-19T23:41:07.524Z,26.80
2018-12-19T23:43:36.975Z,39.63
2018-12-19T23:46:05.363Z,64.10
2018-12-19T23:48:37.427Z,31.90
2018-12-19T23:51:05.871Z,26.00
2018-12-19T23:53:34.294Z,20.80
2018-12-19T23:56:04.791Z,19.13
2018-12-19T23:58:33.303Z,39.77
